Bridgeport, Ohio
Current Conditions -  °F | °C
As of 12:53 AM on Tuesday 21 Oct 2014 (Local Time) from KHLG Reporting Station
Moderate Rain Moderate Rain  
Wind Chill: 50°   Ceiling: 2300
Heat Index: 50°   Visibility: 5mi
Dew Point: 46°   Wind: 8mph
Humidity: 86%   Direction: 230°SW
Pressure: 29.87"   Gusts: NA
Location:  40.07°N, 80.74°W
Report Text: KHLG 210453Z AUTO 23007KT 5SM RA BR BKN023 BKN032 OVC060 10/08 A2987 RMK AO2 RAB21 SLP119 P0003 T01000078 401500056
Loading
Personal Weather Stations






























Interactive Weather Map
Tropical Storm Tracking
New forecast layout! Learn more

10-Day Weather Forecast

Advertisements
Track Severe Weather on mobile